sensor_id;sensor_type;location;lat;lon;timestamp;pressure;altitude;pressure_sealevel;temperature;humidity
44839;BME280;30576;42.098;24.876;2023-04-06T00:00:01;99538.34;;;4.23;59.59
44839;BME280;30576;42.098;24.876;2023-04-06T00:02:27;99528.78;;;4.24;60.27
44839;BME280;30576;42.098;24.876;2023-04-06T00:04:52;99522.69;;;4.23;60.59
44839;BME280;30576;42.098;24.876;2023-04-06T00:07:18;99521.03;;;4.35;60.45
44839;BME280;30576;42.098;24.876;2023-04-06T00:09:43;99523.59;;;4.28;60.29
44839;BME280;30576;42.098;24.876;2023-04-06T00:12:08;99523.44;;;4.08;59.77
44839;BME280;30576;42.098;24.876;2023-04-06T00:14:34;99521.72;;;4.15;59.44
44839;BME280;30576;42.098;24.876;2023-04-06T00:16:59;99520.03;;;4.19;59.51
44839;BME280;30576;42.098;24.876;2023-04-06T00:19:25;99519.91;;;4.02;60.12
44839;BME280;30576;42.098;24.876;2023-04-06T00:21:50;99514.69;;;4.03;59.80
44839;BME280;30576;42.098;24.876;2023-04-06T00:24:15;99517.28;;;4.00;59.97
44839;BME280;30576;42.098;24.876;2023-04-06T00:26:41;99509.28;;;3.82;60.26
44839;BME280;30576;42.098;24.876;2023-04-06T00:29:06;99506.66;;;3.82;59.73
44839;BME280;30576;42.098;24.876;2023-04-06T00:31:31;99503.19;;;3.84;60.51
44839;BME280;30576;42.098;24.876;2023-04-06T00:33:57;99498.03;;;3.92;60.10
44839;BME280;30576;42.098;24.876;2023-04-06T00:36:22;99496.31;;;3.89;60.30
44839;BME280;30576;42.098;24.876;2023-04-06T00:38:48;99506.66;;;3.82;60.38
44839;BME280;30576;42.098;24.876;2023-04-06T00:41:13;99499.56;;;3.68;60.20
44839;BME280;30576;42.098;24.876;2023-04-06T00:43:38;99503.00;;;3.64;60.87
44839;BME280;30576;42.098;24.876;2023-04-06T00:46:04;99494.28;;;3.62;60.83
44839;BME280;30576;42.098;24.876;2023-04-06T00:48:30;99503.84;;;3.60;60.00
44839;BME280;30576;42.098;24.876;2023-04-06T00:50:56;99503.84;;;3.60;60.30
44839;BME280;30576;42.098;24.876;2023-04-06T00:53:22;99502.88;;;3.53;60.88
44839;BME280;30576;42.098;24.876;2023-04-06T00:55:47;99502.78;;;3.43;61.34
44839;BME280;30576;42.098;24.876;2023-04-06T00:58:13;99499.41;;;3.53;61.37
44839;BME280;30576;42.098;24.876;2023-04-06T01:00:38;99505.53;;;3.58;60.84
44839;BME280;30576;42.098;24.876;2023-04-06T01:03:03;99501.06;;;3.43;61.49
44839;BME280;30576;42.098;24.876;2023-04-06T01:05:32;99501.94;;;3.44;61.29
44839;BME280;30576;42.098;24.876;2023-04-06T01:07:58;99504.34;;;3.25;61.61
44839;BME280;30576;42.098;24.876;2023-04-06T01:10:27;99498.25;;;3.25;61.38
44839;BME280;30576;42.098;24.876;2023-04-06T01:12:53;99488.69;;;3.25;61.51
44839;BME280;30576;42.098;24.876;2023-04-06T01:15:19;99486.91;;;3.21;61.21
44839;BME280;30576;42.098;24.876;2023-04-06T01:17:45;99486.06;;;3.23;61.43
44839;BME280;30576;42.098;24.876;2023-04-06T01:20:11;99495.69;;;3.29;60.84
44839;BME280;30576;42.098;24.876;2023-04-06T01:22:36;99486.09;;;3.25;61.16
44839;BME280;30576;42.098;24.876;2023-04-06T01:25:01;99487.03;;;3.33;60.56
44839;BME280;30576;42.098;24.876;2023-04-06T01:27:27;99481.81;;;3.32;61.50
44839;BME280;30576;42.098;24.876;2023-04-06T01:29:54;99475.72;;;3.31;61.30
44839;BME280;30576;42.098;24.876;2023-04-06T01:32:20;99483.53;;;3.31;61.38
44839;BME280;30576;42.098;24.876;2023-04-06T01:34:45;99473.00;;;3.22;61.34
44839;BME280;30576;42.098;24.876;2023-04-06T01:37:11;99470.44;;;3.23;61.27
44839;BME280;30576;42.098;24.876;2023-04-06T01:39:36;99470.34;;;3.16;60.81
44839;BME280;30576;42.098;24.876;2023-04-06T01:42:01;99474.72;;;3.18;60.66
44839;BME280;30576;42.098;24.876;2023-04-06T01:44:27;99474.63;;;3.11;61.60
44839;BME280;30576;42.098;24.876;2023-04-06T01:46:55;99480.91;;;3.30;60.72
44839;BME280;30576;42.098;24.876;2023-04-06T01:49:20;99478.47;;;3.44;60.59
44839;BME280;30576;42.098;24.876;2023-04-06T01:51:45;99478.28;;;3.27;61.43
44839;BME280;30576;42.098;24.876;2023-04-06T01:54:11;99472.34;;;3.40;61.11
44839;BME280;30576;42.098;24.876;2023-04-06T01:56:36;99473.22;;;3.42;61.79
44839;BME280;30576;42.098;24.876;2023-04-06T01:59:01;99462.34;;;3.02;62.46
44839;BME280;30576;42.098;24.876;2023-04-06T02:01:27;99467.78;;;3.19;62.98
44839;BME280;30576;42.098;24.876;2023-04-06T02:03:52;99465.91;;;3.09;63.55
44839;BME280;30576;42.098;24.876;2023-04-06T02:06:17;99471.22;;;3.19;63.27
44839;BME280;30576;42.098;24.876;2023-04-06T02:08:43;99464.91;;;2.96;63.62
44839;BME280;30576;42.098;24.876;2023-04-06T02:11:08;99470.19;;;3.02;63.25
44839;BME280;30576;42.098;24.876;2023-04-06T02:13:34;99465.88;;;3.05;62.88
44839;BME280;30576;42.098;24.876;2023-04-06T02:15:59;99470.19;;;3.02;63.47
44839;BME280;30576;42.098;24.876;2023-04-06T02:18:24;99466.72;;;3.03;63.74
44839;BME280;30576;42.098;24.876;2023-04-06T02:20:50;99469.97;;;2.85;64.72
44839;BME280;30576;42.098;24.876;2023-04-06T02:23:16;99465.72;;;2.93;64.30
44839;BME280;30576;42.098;24.876;2023-04-06T02:25:41;99472.94;;;3.16;64.00
44839;BME280;30576;42.098;24.876;2023-04-06T02:28:07;99472.84;;;3.07;64.33
44839;BME280;30576;42.098;24.876;2023-04-06T02:30:32;99478.81;;;2.98;64.82
44839;BME280;30576;42.098;24.876;2023-04-06T02:32:59;99483.16;;;2.97;64.36
44839;BME280;30576;42.098;24.876;2023-04-06T02:35:24;99472.00;;;3.09;64.91
44839;BME280;30576;42.098;24.876;2023-04-06T02:37:50;99484.25;;;3.16;64.22
44839;BME280;30576;42.098;24.876;2023-04-06T02:40:15;99476.41;;;3.16;64.50
44839;BME280;30576;42.098;24.876;2023-04-06T02:42:41;99478.22;;;3.20;64.28
44839;BME280;30576;42.098;24.876;2023-04-06T02:45:06;99488.72;;;3.28;63.35
44839;BME280;30576;42.098;24.876;2023-04-06T02:47:32;99485.06;;;3.11;63.61
44839;BME280;30576;42.098;24.876;2023-04-06T02:49:57;99487.81;;;3.25;63.94
44839;BME280;30576;42.098;24.876;2023-04-06T02:52:23;99490.84;;;2.88;63.88
44839;BME280;30576;42.098;24.876;2023-04-06T02:54:48;99484.00;;;2.96;63.27
44839;BME280;30576;42.098;24.876;2023-04-06T02:57:16;99480.66;;;3.07;62.89
44839;BME280;30576;42.098;24.876;2023-04-06T02:59:41;99482.34;;;3.01;62.70
44839;BME280;30576;42.098;24.876;2023-04-06T03:02:06;99483.13;;;2.96;62.30
44839;BME280;30576;42.098;24.876;2023-04-06T03:04:32;99483.06;;;2.91;62.72
44839;BME280;30576;42.098;24.876;2023-04-06T03:06:57;99477.97;;;3.00;62.39
44839;BME280;30576;42.098;24.876;2023-04-06T03:09:22;99482.25;;;2.94;62.99
44839;BME280;30576;42.098;24.876;2023-04-06T03:11:48;99482.09;;;2.81;63.01
44839;BME280;30576;42.098;24.876;2023-04-06T03:14:13;99474.25;;;2.78;62.91
44839;BME280;30576;42.098;24.876;2023-04-06T03:16:38;99480.38;;;2.83;62.40
44839;BME280;30576;42.098;24.876;2023-04-06T03:19:04;99477.75;;;2.83;62.51
44839;BME280;30576;42.098;24.876;2023-04-06T03:21:29;99477.03;;;2.94;63.15
44839;BME280;30576;42.098;24.876;2023-04-06T03:23:55;99480.22;;;2.73;63.78
44839;BME280;30576;42.098;24.876;2023-04-06T03:26:20;99480.34;;;2.82;63.68
44839;BME280;30576;42.098;24.876;2023-04-06T03:28:47;99482.91;;;2.77;63.09
44839;BME280;30576;42.098;24.876;2023-04-06T03:31:12;99490.81;;;2.85;63.39
44839;BME280;30576;42.098;24.876;2023-04-06T03:33:37;99490.13;;;2.98;62.45
44839;BME280;30576;42.098;24.876;2023-04-06T03:36:03;99487.59;;;3.04;62.66
44839;BME280;30576;42.098;24.876;2023-04-06T03:38:29;99496.25;;;3.03;62.95
44839;BME280;30576;42.098;24.876;2023-04-06T03:40:54;99492.47;;;2.77;63.26
44839;BME280;30576;42.098;24.876;2023-04-06T03:43:20;99495.22;;;2.89;63.59
44839;BME280;30576;42.098;24.876;2023-04-06T03:45:45;99498.53;;;2.77;63.35
44839;BME280;30576;42.098;24.876;2023-04-06T03:48:10;99500.34;;;2.81;63.61
44839;BME280;30576;42.098;24.876;2023-04-06T03:50:36;99503.69;;;2.74;63.54
44839;BME280;30576;42.098;24.876;2023-04-06T03:53:01;99495.06;;;2.77;62.98
44839;BME280;30576;42.098;24.876;2023-04-06T03:55:28;99498.56;;;2.80;63.74
44839;BME280;30576;42.098;24.876;2023-04-06T03:57:53;99489.06;;;2.85;63.21
44839;BME280;30576;42.098;24.876;2023-04-06T04:00:18;99494.28;;;2.85;63.68
44839;BME280;30576;42.098;24.876;2023-04-06T04:02:44;99496.06;;;2.88;63.11
44839;BME280;30576;42.098;24.876;2023-04-06T04:05:09;99494.34;;;2.90;63.19
44839;BME280;30576;42.098;24.876;2023-04-06T04:07:35;99488.28;;;2.90;63.22
44839;BME280;30576;42.098;24.876;2023-04-06T04:10:00;99494.31;;;2.89;64.05
44839;BME280;30576;42.098;24.876;2023-04-06T04:12:25;99498.84;;;3.02;63.74
44839;BME280;30576;42.098;24.876;2023-04-06T04:14:51;99493.03;;;3.23;63.55
44839;BME280;30576;42.098;24.876;2023-04-06T04:17:16;99489.47;;;3.19;63.32
44839;BME280;30576;42.098;24.876;2023-04-06T04:19:41;99489.63;;;3.32;63.21
44839;BME280;30576;42.098;24.876;2023-04-06T04:22:06;99484.50;;;3.39;62.69
44839;BME280;30576;42.098;24.876;2023-04-06T04:24:32;99487.25;;;3.55;61.74
44839;BME280;30576;42.098;24.876;2023-04-06T04:26:57;99488.22;;;3.63;62.23
44839;BME280;30576;42.098;24.876;2023-04-06T04:29:23;99481.38;;;3.74;61.52
44839;BME280;30576;42.098;24.876;2023-04-06T04:31:51;99479.94;;;4.13;60.35
44839;BME280;30576;42.098;24.876;2023-04-06T04:34:17;99479.31;;;4.45;59.12
44839;BME280;30576;42.098;24.876;2023-04-06T04:36:45;99487.94;;;4.38;58.79
44839;BME280;30576;42.098;24.876;2023-04-06T04:39:10;99472.28;;;4.37;59.76
44839;BME280;30576;42.098;24.876;2023-04-06T04:41:35;99470.69;;;4.57;59.03
44839;BME280;30576;42.098;24.876;2023-04-06T04:44:01;99476.88;;;4.81;58.93
44839;BME280;30576;42.098;24.876;2023-04-06T04:46:26;99472.50;;;4.75;58.22
44839;BME280;30576;42.098;24.876;2023-04-06T04:48:52;99472.44;;;4.63;57.72
44839;BME280;30576;42.098;24.876;2023-04-06T04:51:18;99482.03;;;4.65;58.08
44839;BME280;30576;42.098;24.876;2023-04-06T04:53:44;99470.81;;;4.85;57.39
44839;BME280;30576;42.098;24.876;2023-04-06T04:56:10;99465.63;;;4.93;58.57
44839;BME280;30576;42.098;24.876;2023-04-06T04:58:35;99461.31;;;5.06;57.63
44839;BME280;30576;42.098;24.876;2023-04-06T05:01:00;99453.38;;;4.86;57.98
44839;BME280;30576;42.098;24.876;2023-04-06T05:03:26;99456.91;;;4.94;56.92
44839;BME280;30576;42.098;24.876;2023-04-06T05:05:52;99462.97;;;4.85;57.02
44839;BME280;30576;42.098;24.876;2023-04-06T05:08:17;99451.59;;;4.74;57.01
44839;BME280;30576;42.098;24.876;2023-04-06T05:10:43;99457.66;;;4.63;57.56
44839;BME280;30576;42.098;24.876;2023-04-06T05:13:09;99450.75;;;4.82;57.99
44839;BME280;30576;42.098;24.876;2023-04-06T05:15:34;99450.72;;;4.72;58.06
44839;BME280;30576;42.098;24.876;2023-04-06T05:18:03;99444.53;;;4.51;57.10
44839;BME280;30576;42.098;24.876;2023-04-06T05:20:28;99445.38;;;4.52;57.53
44839;BME280;30576;42.098;24.876;2023-04-06T05:22:53;99442.03;;;4.77;57.81
44839;BME280;30576;42.098;24.876;2023-04-06T05:25:19;99433.38;;;5.00;57.20
44839;BME280;30576;42.098;24.876;2023-04-06T05:27:44;99434.28;;;5.02;56.54
44839;BME280;30576;42.098;24.876;2023-04-06T05:30:09;99429.94;;;5.10;56.02
44839;BME280;30576;42.098;24.876;2023-04-06T05:32:35;99430.00;;;5.32;55.59
44839;BME280;30576;42.098;24.876;2023-04-06T05:35:00;99430.03;;;5.41;55.79
44839;BME280;30576;42.098;24.876;2023-04-06T05:37:26;99423.06;;;5.76;55.53
44839;BME280;30576;42.098;24.876;2023-04-06T05:39:51;99435.25;;;5.41;54.84
44839;BME280;30576;42.098;24.876;2023-04-06T05:42:16;99415.22;;;5.82;54.97
44839;BME280;30576;42.098;24.876;2023-04-06T05:44:42;99416.06;;;5.82;54.76
44839;BME280;30576;42.098;24.876;2023-04-06T05:47:07;99429.16;;;5.79;53.84
44839;BME280;30576;42.098;24.876;2023-04-06T05:49:32;99429.16;;;5.78;54.82
44839;BME280;30576;42.098;24.876;2023-04-06T05:51:58;99428.31;;;6.02;53.99
44839;BME280;30576;42.098;24.876;2023-04-06T05:54:23;99428.31;;;6.09;53.24
44839;BME280;30576;42.098;24.876;2023-04-06T05:56:48;99419.59;;;6.12;52.85
44839;BME280;30576;42.098;24.876;2023-04-06T05:59:14;99415.19;;;6.30;53.76
44839;BME280;30576;42.098;24.876;2023-04-06T06:01:40;99422.16;;;6.49;52.61
44839;BME280;30576;42.098;24.876;2023-04-06T06:04:05;99414.25;;;6.57;52.35
44839;BME280;30576;42.098;24.876;2023-04-06T06:06:31;99417.78;;;6.40;52.22
44839;BME280;30576;42.098;24.876;2023-04-06T06:08:56;99422.91;;;6.79;51.38
44839;BME280;30576;42.098;24.876;2023-04-06T06:11:26;99412.25;;;7.16;50.97
44839;BME280;30576;42.098;24.876;2023-04-06T06:13:51;99420.25;;;6.85;51.97
44839;BME280;30576;42.098;24.876;2023-04-06T06:16:17;99409.59;;;7.17;51.47
44839;BME280;30576;42.098;24.876;2023-04-06T06:18:43;99412.22;;;7.22;51.85
44839;BME280;30576;42.098;24.876;2023-04-06T06:21:08;99417.56;;;7.04;50.75
44839;BME280;30576;42.098;24.876;2023-04-06T06:23:34;99421.06;;;7.01;50.80
44839;BME280;30576;42.098;24.876;2023-04-06T06:25:59;99428.06;;;7.02;52.26
44839;BME280;30576;42.098;24.876;2023-04-06T06:28:26;99416.59;;;7.22;51.26
44839;BME280;30576;42.098;24.876;2023-04-06T06:30:51;99426.94;;;7.48;49.92
44839;BME280;30576;42.098;24.876;2023-04-06T06:33:16;99426.88;;;7.54;48.91
44839;BME280;30576;42.098;24.876;2023-04-06T06:35:42;99430.84;;;8.06;50.33
44839;BME280;30576;42.098;24.876;2023-04-06T06:38:07;99435.38;;;7.85;49.08
44839;BME280;30576;42.098;24.876;2023-04-06T06:40:33;99429.81;;;8.22;49.48
44839;BME280;30576;42.098;24.876;2023-04-06T06:42:58;99429.09;;;8.06;48.13
44839;BME280;30576;42.098;24.876;2023-04-06T06:45:24;99426.66;;;7.85;48.73
44839;BME280;30576;42.098;24.876;2023-04-06T06:47:50;99436.75;;;8.31;48.86
44839;BME280;30576;42.098;24.876;2023-04-06T06:50:15;99427.06;;;8.36;48.44
44839;BME280;30576;42.098;24.876;2023-04-06T06:52:41;99420.41;;;8.85;48.57
44839;BME280;30576;42.098;24.876;2023-04-06T06:55:07;99423.88;;;8.03;47.92
44839;BME280;30576;42.098;24.876;2023-04-06T06:57:33;99423.69;;;8.23;47.85
44839;BME280;30576;42.098;24.876;2023-04-06T06:59:58;99425.81;;;8.73;47.49
44839;BME280;30576;42.098;24.876;2023-04-06T07:02:25;99420.44;;;8.82;46.80
44839;BME280;30576;42.098;24.876;2023-04-06T07:04:50;99418.56;;;8.92;46.31
44839;BME280;30576;42.098;24.876;2023-04-06T07:07:15;99417.13;;;8.65;46.17
44839;BME280;30576;42.098;24.876;2023-04-06T07:09:41;99409.56;;;8.32;47.80
44839;BME280;30576;42.098;24.876;2023-04-06T07:12:06;99417.00;;;8.75;48.20
44839;BME280;30576;42.098;24.876;2023-04-06T07:14:32;99413.34;;;8.89;47.58
44839;BME280;30576;42.098;24.876;2023-04-06T07:16:57;99416.78;;;8.94;45.37
44839;BME280;30576;42.098;24.876;2023-04-06T07:19:22;99413.03;;;8.36;47.57
44839;BME280;30576;42.098;24.876;2023-04-06T07:21:48;99412.31;;;9.02;46.70
44839;BME280;30576;42.098;24.876;2023-04-06T07:24:14;99410.50;;;9.04;47.70
44839;BME280;30576;42.098;24.876;2023-04-06T07:26:40;99412.72;;;8.70;46.57
44839;BME280;30576;42.098;24.876;2023-04-06T07:29:05;99409.84;;;8.90;47.18
44839;BME280;30576;42.098;24.876;2023-04-06T07:31:31;99409.91;;;9.47;46.50
44839;BME280;30576;42.098;24.876;2023-04-06T07:33:56;99410.53;;;9.63;47.28
44839;BME280;30576;42.098;24.876;2023-04-06T07:36:22;99407.66;;;9.79;46.61
44839;BME280;30576;42.098;24.876;2023-04-06T07:38:47;99405.44;;;9.53;43.51
44839;BME280;30576;42.098;24.876;2023-04-06T07:41:13;99406.47;;;9.44;47.28
44839;BME280;30576;42.098;24.876;2023-04-06T07:43:39;99404.81;;;9.35;46.60
44839;BME280;30576;42.098;24.876;2023-04-06T07:46:04;99415.56;;;9.77;46.45
44839;BME280;30576;42.098;24.876;2023-04-06T07:48:29;99409.66;;;9.63;45.96
44839;BME280;30576;42.098;24.876;2023-04-06T07:51:02;99414.34;;;9.44;46.38
44839;BME280;30576;42.098;24.876;2023-04-06T07:53:27;99411.38;;;9.03;45.82
44839;BME280;30576;42.098;24.876;2023-04-06T07:55:53;99406.63;;;9.31;46.53
44839;BME280;30576;42.098;24.876;2023-04-06T07:58:18;99412.19;;;9.71;45.69
44839;BME280;30576;42.098;24.876;2023-04-06T08:00:44;99414.81;;;9.71;44.98
44839;BME280;30576;42.098;24.876;2023-04-06T08:03:09;99412.09;;;9.75;43.99
44839;BME280;30576;42.098;24.876;2023-04-06T08:05:34;99398.59;;;9.95;45.92
44839;BME280;30576;42.098;24.876;2023-04-06T08:08:00;99400.06;;;10.13;45.10
44839;BME280;30576;42.098;24.876;2023-04-06T08:10:25;99396.38;;;9.71;46.79
44839;BME280;30576;42.098;24.876;2023-04-06T08:12:51;99397.75;;;9.95;45.87
44839;BME280;30576;42.098;24.876;2023-04-06T08:15:17;99405.16;;;10.23;45.67
44839;BME280;30576;42.098;24.876;2023-04-06T08:17:43;99402.88;;;10.52;46.55
44839;BME280;30576;42.098;24.876;2023-04-06T08:20:08;99394.84;;;10.59;45.75
44839;BME280;30576;42.098;24.876;2023-04-06T08:22:34;99395.22;;;10.82;44.02
44839;BME280;30576;42.098;24.876;2023-04-06T08:24:59;99392.41;;;10.48;44.41
44839;BME280;30576;42.098;24.876;2023-04-06T08:27:24;99385.91;;;10.64;44.68
44839;BME280;30576;42.098;24.876;2023-04-06T08:29:50;99387.63;;;10.20;43.60
44839;BME280;30576;42.098;24.876;2023-04-06T08:32:16;99387.56;;;10.23;44.58
44839;BME280;30576;42.098;24.876;2023-04-06T08:34:41;99381.72;;;10.55;45.34
44839;BME280;30576;42.098;24.876;2023-04-06T08:37:07;99368.84;;;10.82;46.48
44839;BME280;30576;42.098;24.876;2023-04-06T08:39:32;99380.78;;;10.56;43.79
44839;BME280;30576;42.098;24.876;2023-04-06T08:41:59;99365.09;;;10.52;44.04
44839;BME280;30576;42.098;24.876;2023-04-06T08:44:27;99365.44;;;10.33;44.70
44839;BME280;30576;42.098;24.876;2023-04-06T08:46:53;99364.66;;;10.25;44.60
44839;BME280;30576;42.098;24.876;2023-04-06T08:49:19;99353.94;;;10.37;46.07
44839;BME280;30576;42.098;24.876;2023-04-06T08:51:44;99362.75;;;10.80;45.26
44839;BME280;30576;42.098;24.876;2023-04-06T08:54:10;99351.38;;;11.17;44.20
44839;BME280;30576;42.098;24.876;2023-04-06T08:56:37;99354.72;;;10.85;46.01
44839;BME280;30576;42.098;24.876;2023-04-06T08:59:04;99358.91;;;11.34;47.16
44839;BME280;30576;42.098;24.876;2023-04-06T09:01:30;99352.03;;;10.88;43.32
44839;BME280;30576;42.098;24.876;2023-04-06T09:03:59;99346.25;;;11.11;45.75
44839;BME280;30576;42.098;24.876;2023-04-06T09:06:30;99351.16;;;11.26;44.46
44839;BME280;30576;42.098;24.876;2023-04-06T09:08:56;99346.47;;;11.00;43.04
44839;BME280;30576;42.098;24.876;2023-04-06T09:11:21;99339.28;;;11.07;44.29
44839;BME280;30576;42.098;24.876;2023-04-06T09:13:51;99348.03;;;11.09;44.52
44839;BME280;30576;42.098;24.876;2023-04-06T09:16:17;99339.25;;;10.68;44.13
44839;BME280;30576;42.098;24.876;2023-04-06T09:18:44;99340.59;;;10.87;46.45
44839;BME280;30576;42.098;24.876;2023-04-06T09:21:11;99339.81;;;10.82;44.61
44839;BME280;30576;42.098;24.876;2023-04-06T09:23:37;99338.84;;;10.88;43.63
44839;BME280;30576;42.098;24.876;2023-04-06T09:26:06;99331.72;;;11.29;49.65
44839;BME280;30576;42.098;24.876;2023-04-06T09:31:14;99326.91;;;11.09;43.21
44839;BME280;30576;42.098;24.876;2023-04-06T09:33:41;99331.09;;;11.55;44.70
44839;BME280;30576;42.098;24.876;2023-04-06T09:36:06;99323.81;;;11.65;44.13
44839;BME280;30576;42.098;24.876;2023-04-06T09:38:35;99325.16;;;11.81;43.01
44839;BME280;30576;42.098;24.876;2023-04-06T09:41:01;99317.91;;;11.54;43.34
44839;BME280;30576;42.098;24.876;2023-04-06T09:43:26;99319.13;;;11.76;42.94
44839;BME280;30576;42.098;24.876;2023-04-06T09:45:52;99315.31;;;12.21;47.86
44839;BME280;30576;42.098;24.876;2023-04-06T09:48:18;99306.31;;;11.95;46.90
44839;BME280;30576;42.098;24.876;2023-04-06T09:50:45;99313.34;;;11.96;45.28
44839;BME280;30576;42.098;24.876;2023-04-06T09:53:11;99313.72;;;12.47;42.87
44839;BME280;30576;42.098;24.876;2023-04-06T09:55:40;99297.41;;;11.99;44.24
44839;BME280;30576;42.098;24.876;2023-04-06T09:58:07;99304.72;;;11.88;41.76
44839;BME280;30576;42.098;24.876;2023-04-06T10:00:39;99292.97;;;12.00;43.03
44839;BME280;30576;42.098;24.876;2023-04-06T10:05:37;99294.28;;;11.83;40.06
44839;BME280;30576;42.098;24.876;2023-04-06T10:08:11;99289.28;;;11.73;42.43
44839;BME280;30576;42.098;24.876;2023-04-06T10:10:38;99286.47;;;11.79;42.58
44839;BME280;30576;42.098;24.876;2023-04-06T10:13:04;99296.88;;;11.85;42.82
44839;BME280;30576;42.098;24.876;2023-04-06T10:15:30;99290.63;;;11.88;42.64
44839;BME280;30576;42.098;24.876;2023-04-06T10:17:56;99283.88;;;12.42;43.71
44839;BME280;30576;42.098;24.876;2023-04-06T10:23:08;99285.94;;;12.32;41.13
44839;BME280;30576;42.098;24.876;2023-04-06T10:25:34;99277.91;;;12.04;41.98
44839;BME280;30576;42.098;24.876;2023-04-06T10:28:06;99261.63;;;12.49;44.03
44839;BME280;30576;42.098;24.876;2023-04-06T10:30:33;99246.78;;;12.43;41.60
44839;BME280;30576;42.098;24.876;2023-04-06T10:33:00;99268.75;;;12.15;40.37
44839;BME280;30576;42.098;24.876;2023-04-06T10:35:36;99257.69;;;12.32;41.82
44839;BME280;30576;42.098;24.876;2023-04-06T10:38:02;99251.38;;;12.38;38.99
44839;BME280;30576;42.098;24.876;2023-04-06T10:40:35;99255.53;;;12.15;40.39
44839;BME280;30576;42.098;24.876;2023-04-06T10:43:11;99253.84;;;12.44;38.61
44839;BME280;30576;42.098;24.876;2023-04-06T10:45:37;99252.22;;;12.39;41.13
44839;BME280;30576;42.098;24.876;2023-04-06T10:48:16;99250.63;;;12.02;38.62
44839;BME280;30576;42.098;24.876;2023-04-06T10:50:57;99247.94;;;12.64;41.89
44839;BME280;30576;42.098;24.876;2023-04-06T10:53:24;99243.03;;;12.52;41.32
44839;BME280;30576;42.098;24.876;2023-04-06T10:55:51;99243.44;;;12.96;40.59
44839;BME280;30576;42.098;24.876;2023-04-06T10:58:17;99242.28;;;12.17;39.54
44839;BME280;30576;42.098;24.876;2023-04-06T11:00:47;99241.88;;;11.99;40.07
44839;BME280;30576;42.098;24.876;2023-04-06T11:03:14;99242.22;;;12.18;41.42
44839;BME280;30576;42.098;24.876;2023-04-06T11:05:50;99231.78;;;12.74;43.90
44839;BME280;30576;42.098;24.876;2023-04-06T11:08:25;99225.16;;;13.15;41.44
44839;BME280;30576;42.098;24.876;2023-04-06T11:10:51;99215.41;;;13.44;41.85
44839;BME280;30576;42.098;24.876;2023-04-06T11:13:18;99218.22;;;13.11;39.44
44839;BME280;30576;42.098;24.876;2023-04-06T11:15:44;99217.88;;;12.95;36.42
44839;BME280;30576;42.098;24.876;2023-04-06T11:18:10;99218.22;;;12.56;39.18
44839;BME280;30576;42.098;24.876;2023-04-06T11:20:36;99215.16;;;12.97;41.51
44839;BME280;30576;42.098;24.876;2023-04-06T11:23:01;99213.50;;;13.21;38.76
44839;BME280;30576;42.098;24.876;2023-04-06T11:25:28;99209.34;;;13.66;42.27
44839;BME280;30576;42.098;24.876;2023-04-06T11:28:02;99215.63;;;13.63;38.82
44839;BME280;30576;42.098;24.876;2023-04-06T11:30:28;99205.56;;;13.48;37.13
44839;BME280;30576;42.098;24.876;2023-04-06T11:33:00;99228.56;;;13.19;38.51
44839;BME280;30576;42.098;24.876;2023-04-06T11:35:25;99202.16;;;13.44;39.06
44839;BME280;30576;42.098;24.876;2023-04-06T11:37:51;99202.38;;;13.38;39.23
44839;BME280;30576;42.098;24.876;2023-04-06T11:40:20;99205.44;;;13.51;40.31
44839;BME280;30576;42.098;24.876;2023-04-06T11:42:51;99210.28;;;13.39;37.67
44839;BME280;30576;42.098;24.876;2023-04-06T11:45:17;99213.59;;;13.18;37.06
44839;BME280;30576;42.098;24.876;2023-04-06T11:47:42;99209.81;;;13.25;37.36
44839;BME280;30576;42.098;24.876;2023-04-06T11:50:08;99206.53;;;13.45;37.54
44839;BME280;30576;42.098;24.876;2023-04-06T11:52:34;99204.66;;;13.20;36.95
44839;BME280;30576;42.098;24.876;2023-04-06T11:55:09;99198.41;;;13.50;37.25
44839;BME280;30576;42.098;24.876;2023-04-06T11:57:34;99200.03;;;13.54;36.98
44839;BME280;30576;42.098;24.876;2023-04-06T12:00:00;99200.38;;;13.18;36.57
44839;BME280;30576;42.098;24.876;2023-04-06T12:02:25;99207.53;;;12.87;36.33
44839;BME280;30576;42.098;24.876;2023-04-06T12:04:51;99197.94;;;13.38;38.71
44839;BME280;30576;42.098;24.876;2023-04-06T12:07:16;99201.03;;;13.76;36.55
44839;BME280;30576;42.098;24.876;2023-04-06T12:09:42;99193.72;;;13.83;36.06
44839;BME280;30576;42.098;24.876;2023-04-06T12:12:07;99196.84;;;13.17;35.43
44839;BME280;30576;42.098;24.876;2023-04-06T12:14:33;99197.78;;;13.16;38.06
44839;BME280;30576;42.098;24.876;2023-04-06T12:16:58;99189.44;;;13.54;38.18
44839;BME280;30576;42.098;24.876;2023-04-06T12:19:23;99192.63;;;13.64;40.70
44839;BME280;30576;42.098;24.876;2023-04-06T12:21:51;99189.81;;;13.43;37.15
44839;BME280;30576;42.098;24.876;2023-04-06T12:24:17;99192.34;;;12.93;38.26
44839;BME280;30576;42.098;24.876;2023-04-06T12:26:42;99191.34;;;13.50;38.72
44839;BME280;30576;42.098;24.876;2023-04-06T12:29:08;99188.84;;;13.19;38.46
44839;BME280;30576;42.098;24.876;2023-04-06T12:31:37;99194.38;;;13.65;39.08
44839;BME280;30576;42.098;24.876;2023-04-06T12:34:03;99194.53;;;13.60;37.93
44839;BME280;30576;42.098;24.876;2023-04-06T12:36:29;99180.69;;;13.77;38.15
44839;BME280;30576;42.098;24.876;2023-04-06T12:38:55;99183.63;;;13.44;39.22
44839;BME280;30576;42.098;24.876;2023-04-06T12:41:20;99185.78;;;13.58;37.80
44839;BME280;30576;42.098;24.876;2023-04-06T12:43:46;99186.16;;;13.47;38.74
44839;BME280;30576;42.098;24.876;2023-04-06T12:46:11;99178.69;;;13.58;37.69
44839;BME280;30576;42.098;24.876;2023-04-06T12:48:37;99173.34;;;14.09;39.29
44839;BME280;30576;42.098;24.876;2023-04-06T12:51:21;99164.31;;;14.13;40.65
44839;BME280;30576;42.098;24.876;2023-04-06T12:53:47;99164.50;;;14.08;36.74
44839;BME280;30576;42.098;24.876;2023-04-06T12:56:12;99166.97;;;13.66;37.16
44839;BME280;30576;42.098;24.876;2023-04-06T12:58:38;99155.84;;;13.54;39.04